Time;durP1;ratioP1;P1;durP2;ratioP2;P2;SDS_P1;SDS_P2;PMS_P1;PMS_P2;Temp;Humidity;BMP_temperature;BMP_pressure;BME280_temperature;BME280_humidity;BME280_pressure;Samples;Min_cycle;Max_cycle;Signal;HPM_P1;HPM_P2
2022/05/05 00:00:55;;;;;;;9.38;6.40;;;384.70;2329.60;;;;;;5090728;28;20093;-81
2022/05/05 00:03:21;;;;;;;10.63;6.35;;;384.70;2329.60;;;;;;5090907;28;20032;-81
2022/05/05 00:05:47;;;;;;;9.30;5.85;;;384.70;2329.60;;;;;;5091929;28;20026;-82
2022/05/05 00:08:13;;;;;;;10.43;6.80;;;384.70;2329.60;;;;;;5090945;28;20016;-81
2022/05/05 00:16:08;;;;;;;7.28;5.28;;;384.40;2329.60;;;;;;5089854;28;20199;-82
2022/05/05 00:18:34;;;;;;;7.53;5.80;;;384.40;2329.60;;;;;;5090740;28;20120;-81
2022/05/05 00:20:59;;;;;;;9.57;6.18;;;384.20;2329.60;;;;;;5093126;28;20036;-81
2022/05/05 00:23:26;;;;;;;10.20;6.50;;;384.10;2329.60;;;;;;5094005;28;20537;-81
2022/05/05 00:25:51;;;;;;;11.82;5.93;;;384.00;2329.60;;;;;;5095858;28;20020;-79
2022/05/05 00:28:17;;;;;;;8.02;5.85;;;359.20;2329.60;;;;;;5091351;28;20377;-81
2022/05/05 00:30:43;;;;;;;8.57;5.95;;;359.20;2329.60;;;;;;5094527;28;20048;-81
2022/05/05 00:33:09;;;;;;;7.70;5.45;;;359.20;2329.60;;;;;;5094100;28;20063;-80
2022/05/05 00:35:34;;;;;;;9.57;5.93;;;359.20;2329.60;;;;;;5086387;28;20024;-81
2022/05/05 00:38:00;;;;;;;6.82;5.78;;;359.20;2329.60;;;;;;5079403;28;20028;-82
2022/05/05 00:40:26;;;;;;;11.80;6.47;;;359.10;2329.60;;;;;;5088594;28;20028;-81
2022/05/05 00:42:52;;;;;;;11.45;6.13;;;359.10;2329.60;;;;;;5088995;28;20028;-82
2022/05/05 00:45:18;;;;;;;9.70;6.72;;;359.00;2329.60;;;;;;5094367;28;20038;-81
2022/05/05 00:47:43;;;;;;;10.43;6.80;;;358.90;2329.60;;;;;;5094134;28;20582;-81
2022/05/05 00:50:11;;;;;;;10.32;5.93;;;358.90;2329.60;;;;;;5094272;28;20020;-81
2022/05/05 00:52:37;;;;;;;12.50;5.90;;;358.80;2329.60;;;;;;5094249;28;20044;-82
2022/05/05 00:55:03;;;;;;;9.70;6.45;;;359.00;2329.60;;;;;;5095074;28;20028;-81
2022/05/05 00:57:30;;;;;;;11.18;6.30;;;359.10;2329.60;;;;;;5099494;28;20052;-80
2022/05/05 00:59:57;;;;;;;10.43;5.35;;;359.20;2329.60;;;;;;5093693;28;20044;-81
2022/05/05 01:02:23;;;;;;;9.07;6.65;;;384.00;2329.60;;;;;;5093750;28;20115;-80
2022/05/05 01:04:49;;;;;;;9.85;5.70;;;384.10;2329.60;;;;;;5093917;28;20080;-80
2022/05/05 01:07:15;;;;;;;7.55;5.43;;;384.20;2329.60;;;;;;5093697;28;20020;-81
2022/05/05 01:09:41;;;;;;;9.45;6.18;;;384.10;2329.60;;;;;;5093861;28;20472;-81
2022/05/05 01:12:07;;;;;;;12.32;5.63;;;384.00;2329.60;;;;;;5093484;28;20024;-81
2022/05/05 01:14:34;;;;;;;12.98;6.13;;;359.10;2329.60;;;;;;5093343;28;20020;-79
2022/05/05 01:17:00;;;;;;;9.25;6.22;;;359.10;2329.60;;;;;;5093186;28;20024;-78
2022/05/05 01:19:26;;;;;;;10.63;6.63;;;359.00;2329.60;;;;;;5092880;28;20042;-81
2022/05/05 01:21:55;;;;;;;10.55;6.18;;;358.90;2329.60;;;;;;5092904;28;20472;-78
2022/05/05 01:29:52;;;;;;;7.97;6.00;;;358.90;2329.60;;;;;;5090863;28;20042;-77
2022/05/05 01:32:18;;;;;;;11.75;6.40;;;359.00;2329.60;;;;;;5093152;28;20077;-77
2022/05/05 01:34:43;;;;;;;7.85;5.45;;;359.00;2329.60;;;;;;5092410;28;20016;-78
2022/05/05 01:37:09;;;;;;;8.05;6.43;;;359.00;2329.60;;;;;;5092132;28;20020;-77
2022/05/05 01:39:35;;;;;;;13.55;6.57;;;359.00;2329.60;;;;;;5092516;28;20016;-77
2022/05/05 01:42:00;;;;;;;10.43;5.95;;;359.00;2329.60;;;;;;5093330;28;20032;-77
2022/05/05 01:44:26;;;;;;;8.98;6.00;;;359.00;2329.60;;;;;;5092433;28;20028;-77
2022/05/05 01:46:55;;;;;;;9.80;7.10;;;358.90;2329.60;;;;;;5092163;28;20708;-77
2022/05/05 01:49:21;;;;;;;7.72;5.75;;;358.80;2329.60;;;;;;5092155;28;20020;-77
2022/05/05 01:51:46;;;;;;;10.27;7.47;;;358.70;2329.60;;;;;;5091492;28;20077;-78
2022/05/05 01:54:12;;;;;;;12.25;7.07;;;358.60;2329.60;;;;;;5092144;28;20388;-77
2022/05/05 01:56:38;;;;;;;12.18;7.20;;;358.50;2329.60;;;;;;5091788;28;20491;-78
2022/05/05 01:59:03;;;;;;;8.32;6.47;;;358.60;2329.60;;;;;;5092831;28;20048;-78
2022/05/05 02:01:29;;;;;;;12.93;7.63;;;358.60;2329.60;;;;;;5091593;28;20062;-77
2022/05/05 02:03:55;;;;;;;9.38;6.95;;;358.70;2329.60;;;;;;5091772;28;20051;-77
2022/05/05 02:06:21;;;;;;;10.57;6.65;;;358.80;2329.60;;;;;;5091907;28;20506;-77
2022/05/05 02:08:49;;;;;;;11.20;6.72;;;358.80;2329.60;;;;;;5091641;28;20019;-78
2022/05/05 02:11:15;;;;;;;10.10;6.97;;;358.80;2329.60;;;;;;5091810;28;20024;-78
2022/05/05 02:13:41;;;;;;;10.95;6.32;;;358.80;2329.60;;;;;;5091620;28;20508;-78
2022/05/05 02:16:08;;;;;;;10.15;6.03;;;358.90;2329.60;;;;;;5091791;28;20039;-78
2022/05/05 02:18:33;;;;;;;12.80;7.47;;;359.00;2329.60;;;;;;5090033;28;20012;-77
2022/05/05 02:20:59;;;;;;;10.30;6.18;;;359.00;2329.60;;;;;;5092782;28;20043;-77
2022/05/05 02:23:25;;;;;;;11.60;6.45;;;358.90;2329.60;;;;;;5091753;28;20012;-78
2022/05/05 02:25:50;;;;;;;9.85;6.93;;;359.00;2329.60;;;;;;5091506;28;20028;-78
2022/05/05 02:28:16;;;;;;;13.30;6.60;;;358.90;2329.60;;;;;;5091646;28;20119;-77
2022/05/05 02:30:42;;;;;;;9.18;6.75;;;359.00;2329.60;;;;;;5090976;28;20027;-78
2022/05/05 02:33:08;;;;;;;11.77;6.32;;;359.00;2329.60;;;;;;5091215;28;20427;-79
2022/05/05 02:35:33;;;;;;;11.82;7.13;;;359.00;2329.60;;;;;;5092343;28;20074;-77
2022/05/05 02:40:43;;;;;;;10.35;7.50;;;358.80;2329.60;;;;;;5091115;28;20085;-78
2022/05/05 02:43:09;;;;;;;8.50;5.97;;;358.80;2329.60;;;;;;5090458;28;20028;-78
2022/05/05 02:45:35;;;;;;;10.77;7.60;;;358.80;2329.60;;;;;;5088390;28;20028;-78
2022/05/05 02:48:01;;;;;;;10.35;6.70;;;358.90;2329.60;;;;;;5092102;28;20098;-78
2022/05/05 02:50:27;;;;;;;10.75;6.68;;;358.80;2329.60;;;;;;5091134;28;20449;-78
2022/05/05 02:52:55;;;;;;;11.27;6.38;;;358.80;2329.60;;;;;;5092287;28;20096;-78
2022/05/05 02:55:22;;;;;;;12.77;6.53;;;358.80;2329.60;;;;;;5091076;28;20035;-78
2022/05/05 02:57:49;;;;;;;12.77;6.55;;;358.60;2329.60;;;;;;5090804;28;20120;-77
2022/05/05 03:00:15;;;;;;;10.32;6.38;;;358.70;2329.60;;;;;;5090577;28;20488;-78
2022/05/05 03:02:43;;;;;;;12.65;7.00;;;358.50;2329.60;;;;;;5090747;28;20443;-78
2022/05/05 03:05:11;;;;;;;12.10;6.60;;;358.40;2329.60;;;;;;5091818;28;20487;-78
2022/05/05 03:07:37;;;;;;;12.18;6.20;;;358.40;2329.60;;;;;;5090882;28;20028;-78
2022/05/05 03:10:05;;;;;;;13.13;6.78;;;358.40;2329.60;;;;;;5090642;28;20023;-78
2022/05/05 03:12:31;;;;;;;13.73;5.78;;;358.50;2329.60;;;;;;5090886;28;20016;-78
2022/05/05 03:14:57;;;;;;;16.60;7.70;;;358.60;2329.60;;;;;;5090612;28;20038;-78
2022/05/05 03:17:23;;;;;;;11.65;6.43;;;358.50;2329.60;;;;;;5090827;28;20111;-78
2022/05/05 03:19:48;;;;;;;11.57;6.47;;;333.70;2329.60;;;;;;5091651;28;20016;-78
2022/05/05 03:22:14;;;;;;;13.98;6.93;;;333.60;2329.60;;;;;;5090743;28;20031;-77
2022/05/05 03:24:40;;;;;;;10.80;6.07;;;333.50;2329.60;;;;;;5091864;28;20019;-77
2022/05/05 03:27:06;;;;;;;8.50;6.10;;;333.40;2329.60;;;;;;5092023;28;20358;-77
2022/05/05 03:29:32;;;;;;;8.43;5.47;;;333.30;2329.60;;;;;;5090268;28;20063;-77
2022/05/05 03:31:58;;;;;;;11.85;6.28;;;333.20;2329.60;;;;;;5091989;28;20455;-78
2022/05/05 03:34:24;;;;;;;12.15;6.53;;;333.20;2329.60;;;;;;5090431;28;20024;-78
2022/05/05 03:36:49;;;;;;;7.60;5.97;;;333.30;2329.60;;;;;;5091741;28;20152;-78
2022/05/05 03:39:15;;;;;;;8.75;6.30;;;333.40;2329.60;;;;;;5091856;28;20472;-78
2022/05/05 03:41:41;;;;;;;11.27;6.15;;;333.50;2329.60;;;;;;5078135;28;20032;-78
2022/05/05 03:44:07;;;;;;;10.63;6.57;;;333.40;2329.60;;;;;;5086053;28;20487;-78
2022/05/05 03:46:33;;;;;;;8.35;6.15;;;333.40;2329.60;;;;;;5090190;28;20056;-77
2022/05/05 03:48:59;;;;;;;11.18;6.78;;;333.40;2329.60;;;;;;5090444;28;20024;-78
2022/05/05 03:51:25;;;;;;;11.20;6.55;;;333.60;2329.60;;;;;;5084625;28;20020;-78
2022/05/05 03:53:52;;;;;;;9.63;5.60;;;333.60;2329.60;;;;;;5090831;28;20043;-77
2022/05/05 03:56:18;;;;;;;12.52;7.57;;;333.50;2329.60;;;;;;5092622;28;20061;-77
2022/05/05 03:58:43;;;;;;;11.18;6.75;;;333.50;2329.60;;;;;;5094193;28;20077;-78
2022/05/05 04:01:09;;;;;;;13.02;7.20;;;333.40;2329.60;;;;;;5095272;28;20051;-77
2022/05/05 04:03:41;;;;;;;8.85;6.30;;;333.30;2329.60;;;;;;5094053;28;20593;-78
2022/05/05 04:06:07;;;;;;;11.38;6.85;;;333.40;2329.60;;;;;;5093823;28;20495;-78
2022/05/05 04:08:34;;;;;;;9.25;6.80;;;333.40;2329.60;;;;;;5094078;28;20024;-77
2022/05/05 04:11:00;;;;;;;15.63;7.43;;;333.40;2329.60;;;;;;5094244;28;20024;-78
2022/05/05 04:13:26;;;;;;;10.57;6.93;;;333.60;2329.60;;;;;;5093954;28;20396;-78
2022/05/05 04:15:53;;;;;;;9.05;6.53;;;333.70;2329.60;;;;;;5083278;28;20017;-78
2022/05/05 04:18:19;;;;;;;10.88;7.20;;;333.50;2329.60;;;;;;5093793;28;20531;-78
2022/05/05 04:20:47;;;;;;;7.93;6.45;;;358.40;2329.60;;;;;;5093643;28;20020;-78
2022/05/05 04:23:13;;;;;;;11.10;7.60;;;358.40;2329.60;;;;;;5093864;28;20048;-77
2022/05/05 04:25:43;;;;;;;10.60;7.60;;;358.50;2329.60;;;;;;5093574;28;20067;-78
2022/05/05 04:28:10;;;;;;;10.60;7.88;;;358.60;2329.60;;;;;;5093939;28;20487;-78
2022/05/05 04:30:37;;;;;;;17.60;8.48;;;358.70;2329.60;;;;;;5093353;28;20055;-78
2022/05/05 04:33:03;;;;;;;16.00;9.70;;;358.70;2329.60;;;;;;5087616;28;20028;-78
2022/05/05 04:35:30;;;;;;;15.88;9.63;;;358.80;2329.60;;;;;;5086203;28;20391;-78
2022/05/05 04:37:56;;;;;;;13.88;9.43;;;358.80;2329.60;;;;;;5093650;28;20021;-78
2022/05/05 04:40:22;;;;;;;16.23;10.20;;;358.90;2329.60;;;;;;5090753;28;20528;-78
2022/05/05 04:42:48;;;;;;;20.88;11.20;;;359.00;2329.60;;;;;;5095240;28;20044;-77
2022/05/05 04:45:13;;;;;;;16.92;10.98;;;359.20;2329.60;;;;;;5094832;28;20087;-77
2022/05/05 04:47:39;;;;;;;17.70;12.30;;;359.30;2329.60;;;;;;5094526;28;20102;-79
2022/05/05 04:50:06;;;;;;;19.55;12.77;;;359.30;2329.60;;;;;;5094614;28;20047;-78
2022/05/05 04:52:32;;;;;;;21.55;12.35;;;384.10;2329.60;;;;;;5094707;28;20020;-79
2022/05/05 04:54:59;;;;;;;20.73;12.52;;;384.10;2329.60;;;;;;5093866;28;20051;-80
2022/05/05 04:57:25;;;;;;;29.77;14.93;;;384.20;2329.60;;;;;;5092963;28;20031;-79
2022/05/05 04:59:52;;;;;;;22.80;13.13;;;384.30;2329.60;;;;;;5094463;28;20071;-80
2022/05/05 05:02:17;;;;;;;26.45;12.98;;;384.40;2329.60;;;;;;5092836;28;20044;-77
2022/05/05 05:04:43;;;;;;;25.88;12.18;;;384.50;2329.60;;;;;;5077634;28;20723;-78
2022/05/05 05:07:09;;;;;;;19.85;11.60;;;384.60;2329.60;;;;;;5092389;28;20031;-78
2022/05/05 05:09:35;;;;;;;18.15;11.70;;;384.60;2329.60;;;;;;5092898;28;20426;-77
2022/05/05 05:12:03;;;;;;;18.63;12.40;;;384.60;2329.60;;;;;;5087472;28;20051;-79
2022/05/05 05:14:29;;;;;;;19.98;13.50;;;384.60;2329.60;;;;;;5092554;28;20028;-78
2022/05/05 05:16:55;;;;;;;21.60;12.68;;;384.60;2329.60;;;;;;5093331;28;20718;-79
2022/05/05 05:19:20;;;;;;;20.58;14.05;;;384.70;2329.60;;;;;;5092932;28;20479;-80
2022/05/05 05:21:46;;;;;;;24.63;13.88;;;384.70;2329.60;;;;;;5092407;28;20032;-79
2022/05/05 05:24:13;;;;;;;25.08;13.65;;;384.80;2329.60;;;;;;5092783;28;20016;-79
2022/05/05 05:26:39;;;;;;;28.05;15.75;;;384.90;2329.60;;;;;;5084671;28;20033;-78
2022/05/05 05:29:05;;;;;;;25.10;15.32;;;409.70;2355.20;;;;;;5089877;28;20115;-78
2022/05/05 05:31:31;;;;;;;23.65;14.75;;;409.80;2355.20;;;;;;5092931;28;20480;-79
2022/05/05 05:33:57;;;;;;;23.35;12.90;;;409.90;2355.20;;;;;;5092623;28;20028;-79
2022/05/05 05:36:22;;;;;;;21.30;13.65;;;409.90;2355.20;;;;;;5092867;28;20468;-81
2022/05/05 05:38:48;;;;;;;20.52;13.20;;;410.00;2355.20;;;;;;5092719;28;20029;-79
2022/05/05 05:41:14;;;;;;;23.38;15.15;;;410.00;2355.20;;;;;;5091074;28;20043;-82
2022/05/05 05:43:40;;;;;;;20.80;13.43;;;410.20;2355.20;;;;;;5092090;28;20035;-79
2022/05/05 05:46:05;;;;;;;17.08;11.85;;;410.20;2355.20;;;;;;5097468;28;20384;-78
2022/05/05 05:48:31;;;;;;;19.90;12.95;;;410.20;2355.20;;;;;;5092723;28;20020;-78
2022/05/05 05:50:57;;;;;;;17.95;12.65;;;410.30;2355.20;;;;;;5093254;28;20023;-78
2022/05/05 05:53:22;;;;;;;20.40;13.38;;;410.30;2355.20;;;;;;5090748;28;20016;-78
2022/05/05 05:55:48;;;;;;;19.08;13.23;;;410.50;2355.20;;;;;;5092177;28;20020;-79
2022/05/05 05:58:14;;;;;;;13.85;11.40;;;435.20;2355.20;;;;;;5092512;28;20404;-79
2022/05/05 06:00:40;;;;;;;18.65;12.95;;;435.30;2355.20;;;;;;5092988;28;20133;-81
2022/05/05 06:05:50;;;;;;;16.15;12.45;;;435.60;2355.20;;;;;;5091089;28;20039;-78
2022/05/05 06:08:16;;;;;;;18.70;12.95;;;435.60;2355.20;;;;;;5091340;28;20032;-78
2022/05/05 06:10:42;;;;;;;23.70;13.57;;;435.80;2355.20;;;;;;5090354;28;20047;-77
2022/05/05 06:13:08;;;;;;;22.00;13.40;;;435.80;2355.20;;;;;;5092952;28;20024;-77
2022/05/05 06:15:34;;;;;;;21.23;13.13;;;435.90;2355.20;;;;;;5093784;28;20020;-79
2022/05/05 06:17:59;;;;;;;19.65;13.02;;;436.00;2355.20;;;;;;5090862;28;20024;-79
2022/05/05 06:20:25;;;;;;;18.98;12.57;;;436.10;2355.20;;;;;;5088574;28;20031;-79
2022/05/05 06:22:51;;;;;;;20.15;13.23;;;460.80;2380.80;;;;;;5093250;28;20031;-79
2022/05/05 06:25:20;;;;;;;25.52;12.52;;;460.90;2380.80;;;;;;5091427;28;20487;-79
2022/05/05 06:27:46;;;;;;;21.20;13.25;;;461.10;2380.80;;;;;;5088442;28;20111;-77
2022/05/05 06:30:13;;;;;;;20.65;12.57;;;461.10;2380.80;;;;;;5090695;28;20035;-77
2022/05/05 06:32:43;;;;;;;17.25;11.73;;;461.20;2380.80;;;;;;5091346;28;20074;-78
2022/05/05 06:35:10;;;;;;;19.52;11.82;;;461.30;2380.80;;;;;;5089743;28;20419;-78
2022/05/05 06:37:36;;;;;;;19.17;10.85;;;461.50;2380.80;;;;;;5092759;28;20428;-77
2022/05/05 06:40:03;;;;;;;15.98;11.25;;;461.60;2380.80;;;;;;5091290;28;20034;-77
2022/05/05 06:42:29;;;;;;;15.38;11.27;;;461.60;2380.80;;;;;;5087810;28;20400;-79
2022/05/05 06:44:54;;;;;;;15.27;10.52;;;486.40;2380.80;;;;;;5082663;28;20024;-77
2022/05/05 06:47:20;;;;;;;14.13;10.45;;;486.40;2380.80;;;;;;5090805;28;20027;-78
2022/05/05 06:49:46;;;;;;;14.90;10.90;;;486.50;2380.80;;;;;;5076932;28;20028;-77
2022/05/05 06:52:12;;;;;;;17.27;10.60;;;486.60;2380.80;;;;;;5090816;28;20422;-78
2022/05/05 06:54:38;;;;;;;15.38;9.95;;;486.80;2380.80;;;;;;5091192;28;20027;-78
2022/05/05 06:57:04;;;;;;;15.35;9.93;;;486.90;2380.80;;;;;;5092280;28;20504;-79
2022/05/05 06:59:30;;;;;;;16.08;10.82;;;487.00;2380.80;;;;;;5095940;28;20093;-77
2022/05/05 07:02:01;;;;;;;17.73;9.15;;;487.10;2380.80;;;;;;5091996;28;20094;-77
2022/05/05 07:07:16;;;;;;;14.32;9.95;;;512.00;2380.80;;;;;;5087785;28;20388;-78
2022/05/05 07:12:29;;;;;;;;;;;512.20;2380.80;;;;;;5092487;28;20034;-77
2022/05/05 07:14:55;;;;;;;12.07;9.25;;;512.40;2380.80;;;;;;5090828;28;19904;-77
2022/05/05 07:17:22;;;;;;;10.48;8.75;;;512.60;2380.80;;;;;;5090489;28;20027;-77
2022/05/05 07:19:47;;;;;;;12.25;7.80;;;512.70;2380.80;;;;;;5091894;28;20020;-78
2022/05/05 07:22:13;;;;;;;10.32;8.45;;;512.70;2380.80;;;;;;5090143;28;20038;-77
2022/05/05 07:24:39;;;;;;;17.13;8.07;;;512.90;2380.80;;;;;;5090709;28;20456;-77
2022/05/05 07:27:05;;;;;;;15.40;9.00;;;537.70;2380.80;;;;;;5091688;28;20103;-77
2022/05/05 07:29:31;;;;;;;11.02;6.95;;;537.80;2406.40;;;;;;5089507;28;20555;-76
2022/05/05 07:31:57;;;;;;;8.88;7.22;;;537.90;2278.40;;;;;;5094615;28;20107;-79
2022/05/05 07:34:23;;;;;;;13.40;7.38;;;538.10;2304.00;;;;;;5094727;28;20122;-77
2022/05/05 07:36:49;;;;;;;11.45;6.70;;;538.20;2252.80;;;;;;5094277;28;20107;-78
2022/05/05 07:39:16;;;;;;;12.85;6.88;;;538.20;2201.60;;;;;;5095639;28;20024;-76
2022/05/05 07:41:42;;;;;;;12.88;7.63;;;538.40;2176.00;;;;;;5095770;28;20034;-75
2022/05/05 07:44:08;;;;;;;10.55;6.95;;;563.30;2176.00;;;;;;5094562;28;20024;-76
2022/05/05 07:46:35;;;;;;;13.50;7.43;;;563.20;2176.00;;;;;;5095874;28;20016;-76
2022/05/05 07:49:02;;;;;;;10.75;6.93;;;563.30;2048.00;;;;;;5094331;28;20488;-77
2022/05/05 07:51:31;;;;;;;10.90;6.43;;;563.40;2073.60;;;;;;5094243;28;20156;-75
2022/05/05 07:56:45;;;;;;;14.95;7.40;;;563.60;2048.00;;;;;;5094296;28;20391;-77
2022/05/05 07:59:11;;;;;;;12.75;6.72;;;563.60;2073.60;;;;;;5093962;28;20116;-77
2022/05/05 08:01:38;;;;;;;11.02;6.15;;;563.60;2099.20;;;;;;5089899;28;20039;-77
2022/05/05 08:04:04;;;;;;;12.73;6.72;;;563.80;2022.40;;;;;;5085893;28;20027;-76
2022/05/05 08:06:31;;;;;;;8.95;6.35;;;563.80;1996.80;;;;;;5095077;28;20020;-76
2022/05/05 08:08:57;;;;;;;14.77;6.53;;;563.90;1894.40;;;;;;5095252;28;20047;-76
2022/05/05 08:11:22;;;;;;;6.97;5.32;;;564.00;1945.60;;;;;;5094917;28;20418;-76
2022/05/05 08:13:49;;;;;;;13.30;7.15;;;564.00;1971.20;;;;;;5094791;28;20028;-77
2022/05/05 08:16:16;;;;;;;9.93;6.20;;;588.80;1996.80;;;;;;5093908;28;20400;-76
2022/05/05 08:18:42;;;;;;;10.60;6.32;;;564.10;1945.60;;;;;;5095325;28;20406;-78
2022/05/05 08:21:10;;;;;;;11.48;6.78;;;588.90;1971.20;;;;;;5095277;28;20499;-76
2022/05/05 08:23:35;;;;;;;8.55;5.68;;;589.00;1920.00;;;;;;5094061;28;20024;-76
2022/05/05 08:28:46;;;;;;;10.38;5.88;;;589.20;1894.40;;;;;;5093782;28;20067;-75
2022/05/05 08:31:12;;;;;;;9.90;6.18;;;589.20;1894.40;;;;;;5089534;28;20086;-75
2022/05/05 08:33:38;;;;;;;11.35;5.32;;;589.30;1868.80;;;;;;5094880;28;20032;-77
2022/05/05 08:36:06;;;;;;;11.90;5.15;;;589.20;1868.80;;;;;;5093369;28;20492;-77
2022/05/05 08:38:32;;;;;;;8.20;4.60;;;589.30;1817.60;;;;;;5093083;28;20032;-78
2022/05/05 08:40:58;;;;;;;18.63;7.25;;;589.40;1868.80;;;;;;5092045;28;20020;-77
2022/05/05 08:43:24;;;;;;;10.80;5.50;;;589.50;1740.80;;;;;;5093408;28;20153;-77
2022/05/05 08:45:53;;;;;;;22.50;6.88;;;589.50;1689.60;;;;;;5093109;28;20063;-77
2022/05/05 08:48:19;;;;;;;9.60;6.10;;;589.40;1689.60;;;;;;5093410;28;20035;-77
2022/05/05 08:50:51;;;;;;;10.55;5.43;;;589.50;1689.60;;;;;;5093149;28;20020;-77
2022/05/05 08:53:19;;;;;;;9.23;5.13;;;589.50;1715.20;;;;;;5093950;28;20051;-77
2022/05/05 08:55:45;;;;;;;8.32;5.30;;;589.60;1689.60;;;;;;5093637;28;20028;-78
2022/05/05 08:58:12;;;;;;;5.88;4.90;;;589.70;1689.60;;;;;;5093445;28;20046;-77
2022/05/05 09:00:38;;;;;;;7.63;4.72;;;589.60;1612.80;;;;;;5094542;28;20036;-77
2022/05/05 09:03:04;;;;;;;14.30;5.68;;;589.60;1561.60;;;;;;5093296;28;20054;-77
2022/05/05 09:05:42;;;;;;;8.32;5.20;;;589.60;1536.00;;;;;;5093617;28;20035;-76
2022/05/05 09:08:11;;;;;;;11.18;4.47;;;589.60;1587.20;;;;;;5093136;28;20056;-77
2022/05/05 09:10:44;;;;;;;17.02;6.72;;;589.60;1561.60;;;;;;5094687;28;20116;-77
2022/05/05 09:13:10;;;;;;;10.02;4.18;;;589.70;1612.80;;;;;;5093425;28;20111;-77
2022/05/05 09:15:40;;;;;;;10.10;4.38;;;614.40;1510.40;;;;;;5092943;28;20111;-77
2022/05/05 09:18:25;;;;;;;10.45;5.97;;;614.50;1510.40;;;;;;5094712;28;20016;-78
2022/05/05 09:20:51;;;;;;;8.68;5.38;;;614.60;1510.40;;;;;;5093128;28;20020;-77
2022/05/05 09:23:31;;;;;;;10.27;4.85;;;614.70;1484.80;;;;;;5092719;28;20048;-77
2022/05/05 09:25:58;;;;;;;6.05;3.78;;;614.80;1484.80;;;;;;5093079;28;20024;-77
2022/05/05 09:28:31;;;;;;;17.48;5.68;;;614.80;1459.20;;;;;;5094070;28;20028;-77
2022/05/05 09:31:03;;;;;;;10.52;4.43;;;614.90;1459.20;;;;;;5093638;28;20117;-77
2022/05/05 09:33:35;;;;;;;7.50;4.75;;;615.00;1356.80;;;;;;5094309;28;20650;-77
2022/05/05 09:36:09;;;;;;;8.60;4.80;;;615.10;1408.00;;;;;;5092745;28;20468;-77
2022/05/05 09:38:56;;;;;;;5.88;4.78;;;615.20;1356.80;;;;;;5093971;28;20027;-76
2022/05/05 09:41:24;;;;;;;6.85;4.47;;;615.30;1331.20;;;;;;5092688;28;20042;-77
2022/05/05 09:43:53;;;;;;;9.90;5.15;;;615.30;1331.20;;;;;;5092608;28;20383;-78
2022/05/05 09:46:25;;;;;;;6.53;4.05;;;640.10;1382.40;;;;;;5094003;28;20020;-78
2022/05/05 09:49:12;;;;;;;8.45;4.05;;;640.30;1305.60;;;;;;5092422;28;20030;-78
2022/05/05 10:00:25;;;;;;;8.88;4.32;;;640.80;1203.20;;;;;;5093289;28;20506;-77
2022/05/05 10:05:42;;;;;;;6.88;3.95;;;640.90;1203.20;;;;;;5093722;28;20062;-77
2022/05/05 10:08:09;;;;;;;5.57;4.15;;;665.70;1228.80;;;;;;5091708;28;20468;-77
2022/05/05 10:10:37;;;;;;;8.75;4.03;;;665.90;1228.80;;;;;;5091482;28;20117;-77
2022/05/05 10:13:05;;;;;;;10.43;4.53;;;665.90;1228.80;;;;;;5091872;28;20024;-77
2022/05/05 10:15:35;;;;;;;8.82;4.28;;;665.90;1203.20;;;;;;5093180;28;20386;-78
2022/05/05 10:18:04;;;;;;;10.15;4.22;;;666.00;1203.20;;;;;;5092146;28;20020;-77
2022/05/05 10:20:34;;;;;;;7.15;3.67;;;666.00;1228.80;;;;;;5091962;28;20028;-77
2022/05/05 10:23:24;;;;;;;6.97;3.90;;;666.10;1203.20;;;;;;5092896;28;20075;-77
2022/05/05 10:25:55;;;;;;;6.55;4.03;;;666.30;1228.80;;;;;;5091843;28;20130;-76
2022/05/05 10:28:38;;;;;;;5.75;3.50;;;666.50;1228.80;;;;;;5091633;28;20024;-77
2022/05/05 10:31:03;;;;;;;9.02;3.97;;;691.30;1203.20;;;;;;5091585;28;20036;-76
2022/05/05 10:33:54;;;;;;;8.63;3.90;;;691.50;1228.80;;;;;;5093096;28;20028;-75
2022/05/05 10:36:23;;;;;;;4.32;2.92;;;691.70;1177.60;;;;;;5091448;28;20024;-77
2022/05/05 10:38:51;;;;;;;8.07;3.70;;;691.60;1126.40;;;;;;5092564;28;20020;-76
2022/05/05 10:41:39;;;;;;;6.63;3.72;;;691.80;1100.80;;;;;;5091813;28;20024;-77
2022/05/05 10:44:16;;;;;;;6.10;3.13;;;691.70;1075.20;;;;;;5092668;28;20035;-77
2022/05/05 10:46:54;;;;;;;5.25;3.28;;;691.70;1049.60;;;;;;5091418;28;20016;-77
2022/05/05 10:49:37;;;;;;;5.25;3.20;;;691.70;1049.60;;;;;;5092817;28;20035;-77
2022/05/05 10:52:09;;;;;;;5.63;3.35;;;691.90;1024.00;;;;;;5091345;28;20495;-77
2022/05/05 10:54:39;;;;;;;21.10;5.30;;;691.80;1049.60;;;;;;5091134;28;20036;-77
2022/05/05 10:57:23;;;;;;;8.30;3.78;;;691.90;1100.80;;;;;;5092614;28;20028;-78
2022/05/05 11:00:20;;;;;;;8.82;4.32;;;692.10;1075.20;;;;;;5090856;28;20067;-77
2022/05/05 11:02:58;;;;;;;8.45;5.00;;;716.80;1152.00;;;;;;5091003;28;20042;-77
2022/05/05 11:05:31;;;;;;;8.77;4.30;;;717.00;1126.40;;;;;;5091865;28;20131;-77
2022/05/05 11:08:07;;;;;;;5.57;4.40;;;717.10;1100.80;;;;;;5092561;28;20020;-76
2022/05/05 11:13:43;;;;;;;8.93;4.28;;;716.90;1100.80;;;;;;5092223;28;20035;-77
2022/05/05 11:22:17;;;;;;;8.13;4.50;;;716.90;1075.20;;;;;;5092503;28;20051;-77
2022/05/05 11:24:46;;;;;;;10.07;3.92;;;717.00;1152.00;;;;;;5090802;28;20499;-77
2022/05/05 11:27:17;;;;;;;7.82;4.03;;;717.20;1152.00;;;;;;5092462;28;20091;-76
2022/05/05 11:29:52;;;;;;;5.05;3.97;;;717.30;1152.00;;;;;;5092086;28;20051;-77
2022/05/05 11:32:19;;;;;;;5.68;3.65;;;717.50;1100.80;;;;;;5092138;28;20078;-76
2022/05/05 11:34:48;;;;;;;9.43;3.80;;;717.10;1100.80;;;;;;5092112;28;20030;-76
2022/05/05 11:37:14;;;;;;;5.75;3.92;;;691.90;1126.40;;;;;;5091761;28;20114;-77
2022/05/05 11:39:40;;;;;;;6.93;3.78;;;691.40;1177.60;;;;;;5092084;28;20099;-76
2022/05/05 11:42:08;;;;;;;6.80;4.25;;;666.30;1254.40;;;;;;5092154;28;20551;-76
2022/05/05 11:44:41;;;;;;;8.02;4.35;;;666.00;1228.80;;;;;;5092209;28;20020;-75
2022/05/05 11:47:18;;;;;;;7.03;5.30;;;666.00;1152.00;;;;;;5091914;28;20028;-75
2022/05/05 11:49:48;;;;;;;10.40;4.22;;;665.70;1177.60;;;;;;5091408;28;20103;-75
2022/05/05 11:52:24;;;;;;;9.70;4.28;;;666.10;1228.80;;;;;;5092220;28;20028;-78
2022/05/05 11:54:54;;;;;;;7.78;3.80;;;666.50;1228.80;;;;;;5091825;28;20028;-76
2022/05/05 11:57:33;;;;;;;8.95;4.68;;;691.40;1177.60;;;;;;5091993;28;20034;-75
2022/05/05 12:02:44;;;;;;;12.27;4.50;;;691.90;1152.00;;;;;;5091760;28;20127;-76
2022/05/05 12:05:10;;;;;;;7.38;4.40;;;716.80;1152.00;;;;;;5090764;28;20052;-76
2022/05/05 12:07:36;;;;;;;8.35;4.30;;;716.90;1075.20;;;;;;5091726;28;20507;-76
2022/05/05 12:10:08;;;;;;;9.10;3.03;;;717.00;1075.20;;;;;;5091511;28;20043;-77
2022/05/05 12:12:37;;;;;;;9.90;4.47;;;717.00;1049.60;;;;;;5090587;28;20404;-76
2022/05/05 12:15:06;;;;;;;5.10;3.58;;;717.20;1075.20;;;;;;5092521;28;20121;-76
2022/05/05 12:17:41;;;;;;;9.15;4.57;;;717.20;1100.80;;;;;;5095671;28;20468;-76
2022/05/05 12:20:09;;;;;;;8.30;4.45;;;717.30;1075.20;;;;;;5095264;28;20468;-75
2022/05/05 12:22:39;;;;;;;5.78;4.30;;;717.20;1100.80;;;;;;5095456;28;20051;-76
2022/05/05 12:25:06;;;;;;;5.72;4.22;;;717.60;1075.20;;;;;;5095411;28;20020;-76
2022/05/05 12:27:33;;;;;;;10.82;5.18;;;717.70;1024.00;;;;;;5095210;28;20480;-75
2022/05/05 12:29:59;;;;;;;6.70;4.05;;;742.50;1049.60;;;;;;5095035;28;20035;-76
2022/05/05 12:32:24;;;;;;;9.55;3.65;;;742.50;1024.00;;;;;;5095122;28;20031;-76
2022/05/05 12:35:11;;;;;;;16.27;9.15;;;742.40;1049.60;;;;;;5095375;28;20024;-76
2022/05/05 12:37:37;;;;;;;;;;;742.50;1100.80;;;;;;5095548;28;20012;-77
2022/05/05 12:40:05;;;;;;;10.07;4.45;;;742.50;998.40;;;;;;5094952;28;19930;-77
2022/05/05 12:42:41;;;;;;;9.50;4.18;;;742.50;1024.00;;;;;;5093826;28;20395;-77
2022/05/05 12:45:20;;;;;;;8.23;3.75;;;742.60;1049.60;;;;;;5095149;28;20533;-77
2022/05/05 12:47:49;;;;;;;7.72;4.43;;;742.40;1100.80;;;;;;5093682;28;20063;-78
2022/05/05 12:50:52;;;;;;;6.20;4.03;;;742.50;1075.20;;;;;;5093887;28;20028;-76
2022/05/05 13:01:48;;;;;;;5.47;4.07;;;717.70;1049.60;;;;;;5094941;28;20514;-78
2022/05/05 13:04:16;;;;;;;5.80;4.40;;;717.50;1049.60;;;;;;5093428;28;20024;-77
2022/05/05 13:06:44;;;;;;;5.50;3.38;;;717.50;1049.60;;;;;;5092852;28;20119;-77
2022/05/05 13:09:11;;;;;;;7.65;3.92;;;717.50;1024.00;;;;;;5093214;28;20027;-78
2022/05/05 13:11:44;;;;;;;7.15;4.10;;;717.50;1024.00;;;;;;5094290;28;20472;-77
2022/05/05 13:14:10;;;;;;;11.48;3.70;;;717.70;998.40;;;;;;5094608;28;20032;-76